sensor_id;sensor_type;location;lat;lon;timestamp;P1;durP1;ratioP1;P2;durP2;ratioP2
32427;SDS011;18882;50.952;4.366;2022-10-15T00:00:48;26.42;;;13.20;;
32427;SDS011;18882;50.952;4.366;2022-10-15T00:03:13;25.65;;;13.82;;
32427;SDS011;18882;50.952;4.366;2022-10-15T00:05:39;28.58;;;13.60;;
32427;SDS011;18882;50.952;4.366;2022-10-15T00:08:06;27.40;;;14.18;;
32427;SDS011;18882;50.952;4.366;2022-10-15T00:10:33;26.17;;;15.15;;
32427;SDS011;18882;50.952;4.366;2022-10-15T00:13:00;29.67;;;15.23;;
32427;SDS011;18882;50.952;4.366;2022-10-15T00:15:26;30.73;;;15.98;;
32427;SDS011;18882;50.952;4.366;2022-10-15T00:17:52;30.42;;;14.30;;
32427;SDS011;18882;50.952;4.366;2022-10-15T00:20:18;30.08;;;15.95;;
32427;SDS011;18882;50.952;4.366;2022-10-15T00:22:44;28.13;;;14.25;;
32427;SDS011;18882;50.952;4.366;2022-10-15T00:25:11;36.47;;;17.63;;
32427;SDS011;18882;50.952;4.366;2022-10-15T00:27:36;33.33;;;17.02;;
32427;SDS011;18882;50.952;4.366;2022-10-15T00:30:03;36.47;;;16.98;;
32427;SDS011;18882;50.952;4.366;2022-10-15T00:32:30;38.95;;;17.13;;
32427;SDS011;18882;50.952;4.366;2022-10-15T00:34:56;35.97;;;18.65;;
32427;SDS011;18882;50.952;4.366;2022-10-15T00:37:22;34.88;;;16.63;;
32427;SDS011;18882;50.952;4.366;2022-10-15T00:39:48;36.17;;;17.45;;
32427;SDS011;18882;50.952;4.366;2022-10-15T00:42:14;38.10;;;18.00;;
32427;SDS011;18882;50.952;4.366;2022-10-15T00:44:52;35.13;;;17.42;;
32427;SDS011;18882;50.952;4.366;2022-10-15T00:47:34;35.50;;;17.48;;
32427;SDS011;18882;50.952;4.366;2022-10-15T00:50:14;32.97;;;16.75;;
32427;SDS011;18882;50.952;4.366;2022-10-15T00:52:48;37.10;;;17.83;;
32427;SDS011;18882;50.952;4.366;2022-10-15T00:55:31;39.85;;;17.90;;
32427;SDS011;18882;50.952;4.366;2022-10-15T00:58:07;34.20;;;17.90;;
32427;SDS011;18882;50.952;4.366;2022-10-15T01:00:43;37.60;;;17.52;;
32427;SDS011;18882;50.952;4.366;2022-10-15T01:03:09;31.92;;;16.52;;
32427;SDS011;18882;50.952;4.366;2022-10-15T01:05:36;39.20;;;17.25;;
32427;SDS011;18882;50.952;4.366;2022-10-15T01:08:03;33.70;;;16.73;;
32427;SDS011;18882;50.952;4.366;2022-10-15T01:13:34;36.58;;;16.90;;
32427;SDS011;18882;50.952;4.366;2022-10-15T01:16:23;31.88;;;16.35;;
32427;SDS011;18882;50.952;4.366;2022-10-15T01:19:07;33.75;;;16.10;;
32427;SDS011;18882;50.952;4.366;2022-10-15T01:22:01;36.33;;;16.30;;
32427;SDS011;18882;50.952;4.366;2022-10-15T01:24:59;30.45;;;15.07;;
32427;SDS011;18882;50.952;4.366;2022-10-15T01:27:42;34.90;;;17.88;;
32427;SDS011;18882;50.952;4.366;2022-10-15T01:30:24;35.15;;;16.67;;
32427;SDS011;18882;50.952;4.366;2022-10-15T01:35:34;33.08;;;16.08;;
32427;SDS011;18882;50.952;4.366;2022-10-15T01:38:06;36.30;;;17.45;;
32427;SDS011;18882;50.952;4.366;2022-10-15T01:40:46;32.00;;;16.35;;
32427;SDS011;18882;50.952;4.366;2022-10-15T01:43:25;35.17;;;16.85;;
32427;SDS011;18882;50.952;4.366;2022-10-15T01:46:05;29.02;;;16.58;;
32427;SDS011;18882;50.952;4.366;2022-10-15T01:48:36;29.48;;;16.20;;
32427;SDS011;18882;50.952;4.366;2022-10-15T01:51:05;33.75;;;16.33;;
32427;SDS011;18882;50.952;4.366;2022-10-15T01:53:32;32.90;;;17.00;;
32427;SDS011;18882;50.952;4.366;2022-10-15T01:56:01;35.00;;;16.50;;
32427;SDS011;18882;50.952;4.366;2022-10-15T01:58:31;33.00;;;15.48;;
32427;SDS011;18882;50.952;4.366;2022-10-15T02:01:02;26.10;;;15.00;;
32427;SDS011;18882;50.952;4.366;2022-10-15T02:03:29;34.40;;;16.20;;
32427;SDS011;18882;50.952;4.366;2022-10-15T02:05:56;36.70;;;16.42;;
32427;SDS011;18882;50.952;4.366;2022-10-15T02:08:38;35.33;;;16.85;;
32427;SDS011;18882;50.952;4.366;2022-10-15T02:11:11;35.78;;;16.80;;
32427;SDS011;18882;50.952;4.366;2022-10-15T02:14:14;31.60;;;16.25;;
32427;SDS011;18882;50.952;4.366;2022-10-15T02:24:37;33.60;;;15.55;;
32427;SDS011;18882;50.952;4.366;2022-10-15T02:27:11;33.88;;;15.40;;
32427;SDS011;18882;50.952;4.366;2022-10-15T02:29:39;38.78;;;16.80;;
32427;SDS011;18882;50.952;4.366;2022-10-15T02:32:06;42.03;;;18.50;;
32427;SDS011;18882;50.952;4.366;2022-10-15T02:34:35;44.55;;;18.48;;
32427;SDS011;18882;50.952;4.366;2022-10-15T02:37:02;41.13;;;18.10;;
32427;SDS011;18882;50.952;4.366;2022-10-15T02:39:29;47.78;;;18.85;;
32427;SDS011;18882;50.952;4.366;2022-10-15T02:41:55;38.70;;;16.85;;
32427;SDS011;18882;50.952;4.366;2022-10-15T02:44:21;45.42;;;19.13;;
32427;SDS011;18882;50.952;4.366;2022-10-15T02:46:47;43.13;;;18.60;;
32427;SDS011;18882;50.952;4.366;2022-10-15T02:49:13;39.58;;;18.30;;
32427;SDS011;18882;50.952;4.366;2022-10-15T02:51:39;42.42;;;18.85;;
32427;SDS011;18882;50.952;4.366;2022-10-15T02:54:05;44.13;;;17.85;;
32427;SDS011;18882;50.952;4.366;2022-10-15T02:56:32;45.13;;;18.80;;
32427;SDS011;18882;50.952;4.366;2022-10-15T02:58:58;43.38;;;18.83;;
32427;SDS011;18882;50.952;4.366;2022-10-15T03:01:23;42.28;;;17.73;;
32427;SDS011;18882;50.952;4.366;2022-10-15T03:03:49;41.38;;;17.42;;
32427;SDS011;18882;50.952;4.366;2022-10-15T03:06:15;42.85;;;17.92;;
32427;SDS011;18882;50.952;4.366;2022-10-15T03:08:41;45.67;;;18.15;;
32427;SDS011;18882;50.952;4.366;2022-10-15T03:11:07;45.53;;;18.88;;
32427;SDS011;18882;50.952;4.366;2022-10-15T03:13:39;47.10;;;18.02;;
32427;SDS011;18882;50.952;4.366;2022-10-15T03:16:06;46.65;;;18.20;;
32427;SDS011;18882;50.952;4.366;2022-10-15T03:18:32;49.35;;;18.13;;
32427;SDS011;18882;50.952;4.366;2022-10-15T03:20:58;51.60;;;17.92;;
32427;SDS011;18882;50.952;4.366;2022-10-15T03:23:24;46.60;;;19.63;;
32427;SDS011;18882;50.952;4.366;2022-10-15T03:25:50;44.42;;;17.13;;
32427;SDS011;18882;50.952;4.366;2022-10-15T03:28:16;43.35;;;18.65;;
32427;SDS011;18882;50.952;4.366;2022-10-15T03:30:42;42.03;;;17.73;;
32427;SDS011;18882;50.952;4.366;2022-10-15T03:33:08;39.20;;;17.08;;
32427;SDS011;18882;50.952;4.366;2022-10-15T03:35:34;39.15;;;16.48;;
32427;SDS011;18882;50.952;4.366;2022-10-15T03:38:00;42.72;;;17.33;;
32427;SDS011;18882;50.952;4.366;2022-10-15T03:40:29;36.60;;;16.42;;
32427;SDS011;18882;50.952;4.366;2022-10-15T03:42:55;38.53;;;16.10;;
32427;SDS011;18882;50.952;4.366;2022-10-15T03:45:21;34.92;;;15.40;;
32427;SDS011;18882;50.952;4.366;2022-10-15T03:47:47;38.90;;;16.27;;
32427;SDS011;18882;50.952;4.366;2022-10-15T03:50:13;34.42;;;15.25;;
32427;SDS011;18882;50.952;4.366;2022-10-15T03:52:39;27.70;;;14.27;;
32427;SDS011;18882;50.952;4.366;2022-10-15T03:55:06;30.63;;;14.07;;
32427;SDS011;18882;50.952;4.366;2022-10-15T03:57:33;29.48;;;13.68;;
32427;SDS011;18882;50.952;4.366;2022-10-15T03:59:59;32.88;;;14.40;;
32427;SDS011;18882;50.952;4.366;2022-10-15T04:02:25;32.33;;;14.48;;
32427;SDS011;18882;50.952;4.366;2022-10-15T04:04:51;37.28;;;15.25;;
32427;SDS011;18882;50.952;4.366;2022-10-15T04:07:17;32.53;;;15.07;;
32427;SDS011;18882;50.952;4.366;2022-10-15T04:09:43;37.70;;;14.77;;
32427;SDS011;18882;50.952;4.366;2022-10-15T04:12:09;36.17;;;15.38;;
32427;SDS011;18882;50.952;4.366;2022-10-15T04:14:35;32.80;;;15.82;;
32427;SDS011;18882;50.952;4.366;2022-10-15T04:17:00;34.28;;;15.75;;
32427;SDS011;18882;50.952;4.366;2022-10-15T04:19:26;37.95;;;16.40;;
32427;SDS011;18882;50.952;4.366;2022-10-15T04:21:52;35.45;;;15.55;;
32427;SDS011;18882;50.952;4.366;2022-10-15T04:24:17;33.67;;;15.77;;
32427;SDS011;18882;50.952;4.366;2022-10-15T04:26:43;36.22;;;16.90;;
32427;SDS011;18882;50.952;4.366;2022-10-15T04:29:09;32.28;;;14.32;;
32427;SDS011;18882;50.952;4.366;2022-10-15T04:31:35;31.38;;;15.52;;
32427;SDS011;18882;50.952;4.366;2022-10-15T04:34:01;29.05;;;13.75;;
32427;SDS011;18882;50.952;4.366;2022-10-15T04:36:28;34.38;;;13.98;;
32427;SDS011;18882;50.952;4.366;2022-10-15T04:38:54;29.80;;;13.70;;
32427;SDS011;18882;50.952;4.366;2022-10-15T04:41:19;29.90;;;14.43;;
32427;SDS011;18882;50.952;4.366;2022-10-15T04:43:45;24.70;;;12.23;;
32427;SDS011;18882;50.952;4.366;2022-10-15T04:46:11;33.05;;;12.82;;
32427;SDS011;18882;50.952;4.366;2022-10-15T04:48:37;26.83;;;12.20;;
32427;SDS011;18882;50.952;4.366;2022-10-15T04:53:30;24.33;;;12.32;;
32427;SDS011;18882;50.952;4.366;2022-10-15T04:56:00;28.23;;;12.55;;
32427;SDS011;18882;50.952;4.366;2022-10-15T04:58:31;24.02;;;10.82;;
32427;SDS011;18882;50.952;4.366;2022-10-15T05:01:03;26.77;;;11.68;;
32427;SDS011;18882;50.952;4.366;2022-10-15T05:03:31;24.80;;;12.23;;
32427;SDS011;18882;50.952;4.366;2022-10-15T05:06:02;27.33;;;11.00;;
32427;SDS011;18882;50.952;4.366;2022-10-15T05:08:30;22.13;;;11.20;;
32427;SDS011;18882;50.952;4.366;2022-10-15T05:11:01;24.25;;;11.02;;
32427;SDS011;18882;50.952;4.366;2022-10-15T05:13:28;23.83;;;10.13;;
32427;SDS011;18882;50.952;4.366;2022-10-15T05:15:54;21.35;;;9.85;;
32427;SDS011;18882;50.952;4.366;2022-10-15T05:18:20;23.38;;;10.43;;
32427;SDS011;18882;50.952;4.366;2022-10-15T05:20:45;21.00;;;9.45;;
32427;SDS011;18882;50.952;4.366;2022-10-15T05:23:11;22.27;;;9.55;;
32427;SDS011;18882;50.952;4.366;2022-10-15T05:25:37;16.08;;;8.50;;
32427;SDS011;18882;50.952;4.366;2022-10-15T05:28:03;16.00;;;8.00;;
32427;SDS011;18882;50.952;4.366;2022-10-15T05:30:29;23.30;;;8.77;;
32427;SDS011;18882;50.952;4.366;2022-10-15T05:32:55;16.70;;;7.85;;
32427;SDS011;18882;50.952;4.366;2022-10-15T05:35:21;16.05;;;8.32;;
32427;SDS011;18882;50.952;4.366;2022-10-15T05:37:48;15.48;;;7.25;;
32427;SDS011;18882;50.952;4.366;2022-10-15T05:40:13;14.60;;;7.03;;
32427;SDS011;18882;50.952;4.366;2022-10-15T05:42:39;15.05;;;7.13;;
32427;SDS011;18882;50.952;4.366;2022-10-15T05:45:05;20.20;;;7.55;;
32427;SDS011;18882;50.952;4.366;2022-10-15T05:47:31;16.42;;;6.85;;
32427;SDS011;18882;50.952;4.366;2022-10-15T05:49:57;15.15;;;7.18;;
32427;SDS011;18882;50.952;4.366;2022-10-15T05:52:22;19.85;;;6.35;;
32427;SDS011;18882;50.952;4.366;2022-10-15T05:54:48;14.27;;;7.05;;
32427;SDS011;18882;50.952;4.366;2022-10-15T05:57:14;13.80;;;6.20;;
32427;SDS011;18882;50.952;4.366;2022-10-15T05:59:39;13.38;;;6.25;;
32427;SDS011;18882;50.952;4.366;2022-10-15T06:02:05;13.15;;;6.40;;
32427;SDS011;18882;50.952;4.366;2022-10-15T06:04:31;11.57;;;5.32;;
32427;SDS011;18882;50.952;4.366;2022-10-15T06:06:56;10.73;;;5.47;;
32427;SDS011;18882;50.952;4.366;2022-10-15T06:09:23;11.65;;;5.82;;
32427;SDS011;18882;50.952;4.366;2022-10-15T06:11:49;11.32;;;5.25;;
32427;SDS011;18882;50.952;4.366;2022-10-15T06:14:15;11.02;;;4.97;;
32427;SDS011;18882;50.952;4.366;2022-10-15T06:16:40;9.80;;;4.82;;
32427;SDS011;18882;50.952;4.366;2022-10-15T06:19:06;8.95;;;4.72;;
32427;SDS011;18882;50.952;4.366;2022-10-15T06:21:31;11.80;;;5.70;;
32427;SDS011;18882;50.952;4.366;2022-10-15T06:23:57;12.55;;;5.07;;
32427;SDS011;18882;50.952;4.366;2022-10-15T06:26:23;10.25;;;5.00;;
32427;SDS011;18882;50.952;4.366;2022-10-15T06:28:49;9.48;;;4.50;;
32427;SDS011;18882;50.952;4.366;2022-10-15T06:31:14;9.70;;;4.80;;
32427;SDS011;18882;50.952;4.366;2022-10-15T06:33:40;8.68;;;4.50;;
32427;SDS011;18882;50.952;4.366;2022-10-15T06:36:06;9.23;;;4.53;;
32427;SDS011;18882;50.952;4.366;2022-10-15T06:38:34;7.88;;;4.05;;
32427;SDS011;18882;50.952;4.366;2022-10-15T06:41:03;11.82;;;4.30;;
32427;SDS011;18882;50.952;4.366;2022-10-15T06:43:30;9.55;;;4.25;;
32427;SDS011;18882;50.952;4.366;2022-10-15T06:45:57;6.72;;;4.13;;
32427;SDS011;18882;50.952;4.366;2022-10-15T06:48:23;8.10;;;4.05;;
32427;SDS011;18882;50.952;4.366;2022-10-15T06:50:49;6.25;;;3.90;;
32427;SDS011;18882;50.952;4.366;2022-10-15T06:53:15;5.65;;;3.28;;
32427;SDS011;18882;50.952;4.366;2022-10-15T06:55:41;7.47;;;3.95;;
32427;SDS011;18882;50.952;4.366;2022-10-15T06:58:07;8.63;;;4.38;;
32427;SDS011;18882;50.952;4.366;2022-10-15T07:00:33;8.05;;;3.92;;
32427;SDS011;18882;50.952;4.366;2022-10-15T07:03:03;8.18;;;3.95;;
32427;SDS011;18882;50.952;4.366;2022-10-15T07:05:29;6.28;;;3.85;;
32427;SDS011;18882;50.952;4.366;2022-10-15T07:07:56;6.97;;;2.95;;
32427;SDS011;18882;50.952;4.366;2022-10-15T07:10:22;4.57;;;3.03;;
32427;SDS011;18882;50.952;4.366;2022-10-15T07:12:49;6.38;;;3.45;;
32427;SDS011;18882;50.952;4.366;2022-10-15T07:15:14;6.95;;;3.67;;
32427;SDS011;18882;50.952;4.366;2022-10-15T07:17:47;5.47;;;3.38;;
32427;SDS011;18882;50.952;4.366;2022-10-15T07:20:25;7.82;;;4.45;;
32427;SDS011;18882;50.952;4.366;2022-10-15T07:22:59;6.88;;;3.58;;
32427;SDS011;18882;50.952;4.366;2022-10-15T07:25:26;6.70;;;3.92;;
32427;SDS011;18882;50.952;4.366;2022-10-15T07:27:52;7.85;;;4.15;;
32427;SDS011;18882;50.952;4.366;2022-10-15T07:30:19;6.63;;;3.22;;
32427;SDS011;18882;50.952;4.366;2022-10-15T07:32:46;5.25;;;3.20;;
32427;SDS011;18882;50.952;4.366;2022-10-15T07:35:12;4.82;;;3.38;;
32427;SDS011;18882;50.952;4.366;2022-10-15T07:37:38;11.63;;;3.75;;
32427;SDS011;18882;50.952;4.366;2022-10-15T07:40:04;8.15;;;3.53;;
32427;SDS011;18882;50.952;4.366;2022-10-15T07:42:30;6.93;;;4.00;;
32427;SDS011;18882;50.952;4.366;2022-10-15T07:44:56;6.18;;;3.75;;
32427;SDS011;18882;50.952;4.366;2022-10-15T07:47:22;9.15;;;3.33;;
32427;SDS011;18882;50.952;4.366;2022-10-15T07:49:47;14.40;;;4.20;;
32427;SDS011;18882;50.952;4.366;2022-10-15T07:52:13;5.13;;;3.08;;
32427;SDS011;18882;50.952;4.366;2022-10-15T07:54:39;5.30;;;2.95;;
32427;SDS011;18882;50.952;4.366;2022-10-15T07:57:04;5.60;;;3.13;;
32427;SDS011;18882;50.952;4.366;2022-10-15T07:59:33;5.55;;;3.33;;
32427;SDS011;18882;50.952;4.366;2022-10-15T08:01:59;6.55;;;3.75;;
32427;SDS011;18882;50.952;4.366;2022-10-15T08:04:24;6.60;;;3.40;;
32427;SDS011;18882;50.952;4.366;2022-10-15T08:06:50;6.28;;;3.22;;
32427;SDS011;18882;50.952;4.366;2022-10-15T08:09:17;4.07;;;3.15;;
32427;SDS011;18882;50.952;4.366;2022-10-15T08:11:43;7.65;;;3.47;;
32427;SDS011;18882;50.952;4.366;2022-10-15T08:14:09;6.55;;;3.22;;
32427;SDS011;18882;50.952;4.366;2022-10-15T08:16:34;5.35;;;2.58;;
32427;SDS011;18882;50.952;4.366;2022-10-15T08:19:00;5.07;;;2.40;;
32427;SDS011;18882;50.952;4.366;2022-10-15T08:21:26;4.50;;;2.72;;
32427;SDS011;18882;50.952;4.366;2022-10-15T08:23:51;3.78;;;2.17;;
32427;SDS011;18882;50.952;4.366;2022-10-15T08:26:17;2.92;;;1.80;;
32427;SDS011;18882;50.952;4.366;2022-10-15T08:28:43;2.60;;;1.70;;
32427;SDS011;18882;50.952;4.366;2022-10-15T08:31:09;4.80;;;1.80;;
32427;SDS011;18882;50.952;4.366;2022-10-15T08:33:36;5.85;;;1.70;;
32427;SDS011;18882;50.952;4.366;2022-10-15T08:36:05;1.90;;;1.48;;
32427;SDS011;18882;50.952;4.366;2022-10-15T08:38:32;2.13;;;1.33;;
32427;SDS011;18882;50.952;4.366;2022-10-15T08:40:59;4.28;;;1.70;;
32427;SDS011;18882;50.952;4.366;2022-10-15T08:43:46;2.88;;;1.30;;
32427;SDS011;18882;50.952;4.366;2022-10-15T08:46:17;3.58;;;1.20;;
32427;SDS011;18882;50.952;4.366;2022-10-15T08:48:54;1.20;;;1.10;;
32427;SDS011;18882;50.952;4.366;2022-10-15T08:51:23;2.60;;;1.13;;
32427;SDS011;18882;50.952;4.366;2022-10-15T08:53:53;1.33;;;1.13;;
32427;SDS011;18882;50.952;4.366;2022-10-15T08:56:36;5.07;;;1.15;;
32427;SDS011;18882;50.952;4.366;2022-10-15T09:04:45;2.67;;;1.10;;
32427;SDS011;18882;50.952;4.366;2022-10-15T09:07:19;3.00;;;0.80;;
32427;SDS011;18882;50.952;4.366;2022-10-15T09:09:50;0.93;;;0.90;;
32427;SDS011;18882;50.952;4.366;2022-10-15T09:15:14;2.25;;;0.90;;
32427;SDS011;18882;50.952;4.366;2022-10-15T09:17:43;0.82;;;0.60;;
32427;SDS011;18882;50.952;4.366;2022-10-15T09:20:34;1.42;;;0.45;;
32427;SDS011;18882;50.952;4.366;2022-10-15T09:23:00;0.50;;;0.50;;
32427;SDS011;18882;50.952;4.366;2022-10-15T09:25:31;0.77;;;0.70;;
32427;SDS011;18882;50.952;4.366;2022-10-15T09:28:01;3.70;;;0.65;;
32427;SDS011;18882;50.952;4.366;2022-10-15T09:30:48;0.55;;;0.45;;
32427;SDS011;18882;50.952;4.366;2022-10-15T09:36:15;2.63;;;0.45;;
32427;SDS011;18882;50.952;4.366;2022-10-15T09:44:09;0.32;;;0.28;;
32427;SDS011;18882;50.952;4.366;2022-10-15T09:46:44;2.17;;;0.52;;
32427;SDS011;18882;50.952;4.366;2022-10-15T09:49:13;0.87;;;0.50;;
32427;SDS011;18882;50.952;4.366;2022-10-15T09:54:41;0.40;;;0.40;;
32427;SDS011;18882;50.952;4.366;2022-10-15T09:57:17;0.38;;;0.38;;
32427;SDS011;18882;50.952;4.366;2022-10-15T09:59:54;1.58;;;0.60;;
32427;SDS011;18882;50.952;4.366;2022-10-15T10:02:23;0.32;;;0.32;;
32427;SDS011;18882;50.952;4.366;2022-10-15T10:04:49;0.45;;;0.30;;
32427;SDS011;18882;50.952;4.366;2022-10-15T10:12:50;0.45;;;0.45;;
32427;SDS011;18882;50.952;4.366;2022-10-15T10:15:33;0.60;;;0.60;;
32427;SDS011;18882;50.952;4.366;2022-10-15T10:18:00;0.40;;;0.40;;
32427;SDS011;18882;50.952;4.366;2022-10-15T10:20:29;1.33;;;0.60;;
32427;SDS011;18882;50.952;4.366;2022-10-15T10:22:56;0.40;;;0.40;;
32427;SDS011;18882;50.952;4.366;2022-10-15T10:27:56;1.85;;;0.50;;
32427;SDS011;18882;50.952;4.366;2022-10-15T10:30:36;0.85;;;0.57;;
32427;SDS011;18882;50.952;4.366;2022-10-15T10:33:03;0.60;;;0.60;;
32427;SDS011;18882;50.952;4.366;2022-10-15T10:35:34;1.55;;;0.88;;
32427;SDS011;18882;50.952;4.366;2022-10-15T10:38:19;1.17;;;0.77;;
32427;SDS011;18882;50.952;4.366;2022-10-15T10:40:51;0.63;;;0.63;;
32427;SDS011;18882;50.952;4.366;2022-10-15T10:43:23;0.88;;;0.70;;
32427;SDS011;18882;50.952;4.366;2022-10-15T10:45:55;1.17;;;1.08;;
32427;SDS011;18882;50.952;4.366;2022-10-15T10:51:12;0.90;;;0.90;;
32427;SDS011;18882;50.952;4.366;2022-10-15T10:53:51;1.20;;;1.10;;
32427;SDS011;18882;50.952;4.366;2022-10-15T10:56:36;1.05;;;0.70;;
32427;SDS011;18882;50.952;4.366;2022-10-15T10:59:19;1.23;;;0.80;;
32427;SDS011;18882;50.952;4.366;2022-10-15T11:01:51;2.03;;;1.40;;
32427;SDS011;18882;50.952;4.366;2022-10-15T11:04:28;4.53;;;1.10;;
32427;SDS011;18882;50.952;4.366;2022-10-15T11:14:57;1.02;;;0.75;;
32427;SDS011;18882;50.952;4.366;2022-10-15T11:20:08;0.77;;;0.77;;
32427;SDS011;18882;50.952;4.366;2022-10-15T11:23:02;2.67;;;0.85;;
32427;SDS011;18882;50.952;4.366;2022-10-15T11:31:42;2.22;;;0.88;;
32427;SDS011;18882;50.952;4.366;2022-10-15T11:37:26;1.30;;;0.60;;
32427;SDS011;18882;50.952;4.366;2022-10-15T11:40:29;1.38;;;0.60;;
32427;SDS011;18882;50.952;4.366;2022-10-15T11:42:59;1.00;;;0.70;;
32427;SDS011;18882;50.952;4.366;2022-10-15T11:51:00;1.33;;;0.57;;
32427;SDS011;18882;50.952;4.366;2022-10-15T11:53:36;0.65;;;0.65;;
32427;SDS011;18882;50.952;4.366;2022-10-15T11:56:34;1.38;;;0.60;;
32427;SDS011;18882;50.952;4.366;2022-10-15T12:02:12;0.82;;;0.73;;
32427;SDS011;18882;50.952;4.366;2022-10-15T12:04:39;0.57;;;0.40;;
32427;SDS011;18882;50.952;4.366;2022-10-15T12:07:15;1.40;;;0.70;;
32427;SDS011;18882;50.952;4.366;2022-10-15T12:09:50;0.95;;;0.80;;
32427;SDS011;18882;50.952;4.366;2022-10-15T12:13:07;2.25;;;0.95;;
32427;SDS011;18882;50.952;4.366;2022-10-15T12:17:47;0.50;;;0.50;;
32427;SDS011;18882;50.952;4.366;2022-10-15T12:20:28;1.17;;;0.50;;
32427;SDS011;18882;50.952;4.366;2022-10-15T12:22:56;1.38;;;0.77;;
32427;SDS011;18882;50.952;4.366;2022-10-15T12:28:11;1.23;;;1.13;;
32427;SDS011;18882;50.952;4.366;2022-10-15T12:30:41;1.00;;;0.43;;
32427;SDS011;18882;50.952;4.366;2022-10-15T12:35:58;0.98;;;0.30;;
32427;SDS011;18882;50.952;4.366;2022-10-15T12:38:31;0.65;;;0.30;;
32427;SDS011;18882;50.952;4.366;2022-10-15T12:41:09;0.20;;;0.20;;
32427;SDS011;18882;50.952;4.366;2022-10-15T12:43:40;0.20;;;0.20;;
32427;SDS011;18882;50.952;4.366;2022-10-15T12:46:10;0.90;;;0.28;;
32427;SDS011;18882;50.952;4.366;2022-10-15T12:48:41;1.27;;;0.43;;
32427;SDS011;18882;50.952;4.366;2022-10-15T12:53:41;1.35;;;0.50;;
32427;SDS011;18882;50.952;4.366;2022-10-15T12:59:00;1.60;;;0.70;;
32427;SDS011;18882;50.952;4.366;2022-10-15T13:03:52;1.00;;;0.60;;
32427;SDS011;18882;50.952;4.366;2022-10-15T13:11:48;0.40;;;0.30;;
32427;SDS011;18882;50.952;4.366;2022-10-15T13:17:05;3.00;;;0.57;;
32427;SDS011;18882;50.952;4.366;2022-10-15T13:19:46;1.23;;;0.40;;
32427;SDS011;18882;50.952;4.366;2022-10-15T13:22:22;2.15;;;0.40;;
32427;SDS011;18882;50.952;4.366;2022-10-15T13:24:50;1.55;;;0.40;;
32427;SDS011;18882;50.952;4.366;2022-10-15T13:27:24;2.22;;;0.40;;
32427;SDS011;18882;50.952;4.366;2022-10-15T13:29:56;1.27;;;0.43;;
32427;SDS011;18882;50.952;4.366;2022-10-15T13:32:29;2.90;;;0.60;;
32427;SDS011;18882;50.952;4.366;2022-10-15T13:35:08;0.93;;;0.30;;
32427;SDS011;18882;50.952;4.366;2022-10-15T13:37:37;0.68;;;0.38;;
32427;SDS011;18882;50.952;4.366;2022-10-15T13:40:04;1.92;;;0.50;;
32427;SDS011;18882;50.952;4.366;2022-10-15T13:42:31;1.50;;;0.30;;
32427;SDS011;18882;50.952;4.366;2022-10-15T13:47:46;3.92;;;1.00;;
32427;SDS011;18882;50.952;4.366;2022-10-15T13:50:26;2.72;;;1.40;;
32427;SDS011;18882;50.952;4.366;2022-10-15T13:52:56;2.67;;;1.13;;
32427;SDS011;18882;50.952;4.366;2022-10-15T13:55:53;3.13;;;0.68;;
32427;SDS011;18882;50.952;4.366;2022-10-15T13:58:28;6.32;;;1.58;;
32427;SDS011;18882;50.952;4.366;2022-10-15T14:00:58;2.85;;;0.50;;
32427;SDS011;18882;50.952;4.366;2022-10-15T14:06:18;3.65;;;0.45;;
32427;SDS011;18882;50.952;4.366;2022-10-15T14:08:48;1.13;;;0.60;;
32427;SDS011;18882;50.952;4.366;2022-10-15T14:11:16;2.35;;;0.68;;
32427;SDS011;18882;50.952;4.366;2022-10-15T14:13:46;2.65;;;0.30;;
32427;SDS011;18882;50.952;4.366;2022-10-15T14:16:30;3.08;;;0.20;;
32427;SDS011;18882;50.952;4.366;2022-10-15T14:21:33;2.75;;;0.25;;
32427;SDS011;18882;50.952;4.366;2022-10-15T14:24:05;1.48;;;0.52;;
32427;SDS011;18882;50.952;4.366;2022-10-15T14:26:38;2.05;;;0.32;;
32427;SDS011;18882;50.952;4.366;2022-10-15T14:29:04;1.08;;;0.40;;
32427;SDS011;18882;50.952;4.366;2022-10-15T14:31:37;2.88;;;0.80;;
32427;SDS011;18882;50.952;4.366;2022-10-15T14:34:23;0.88;;;0.30;;
32427;SDS011;18882;50.952;4.366;2022-10-15T14:36:50;1.98;;;0.35;;
32427;SDS011;18882;50.952;4.366;2022-10-15T14:39:21;1.95;;;0.40;;
32427;SDS011;18882;50.952;4.366;2022-10-15T14:41:59;1.65;;;0.60;;
32427;SDS011;18882;50.952;4.366;2022-10-15T14:44:38;2.05;;;0.50;;
32427;SDS011;18882;50.952;4.366;2022-10-15T14:47:29;3.57;;;0.70;;
32427;SDS011;18882;50.952;4.366;2022-10-15T14:49:56;6.40;;;0.52;;
32427;SDS011;18882;50.952;4.366;2022-10-15T14:52:25;3.58;;;0.60;;
32427;SDS011;18882;50.952;4.366;2022-10-15T14:57:29;1.08;;;0.55;;
32427;SDS011;18882;50.952;4.366;2022-10-15T14:59:59;3.33;;;0.38;;
32427;SDS011;18882;50.952;4.366;2022-10-15T15:02:27;1.95;;;0.60;;
32427;SDS011;18882;50.952;4.366;2022-10-15T15:07:38;3.42;;;0.52;;
32427;SDS011;18882;50.952;4.366;2022-10-15T15:10:05;4.28;;;0.47;;
32427;SDS011;18882;50.952;4.366;2022-10-15T15:12:33;1.75;;;0.73;;
32427;SDS011;18882;50.952;4.366;2022-10-15T15:14:59;3.97;;;0.40;;
32427;SDS011;18882;50.952;4.366;2022-10-15T15:17:26;2.60;;;0.55;;
32427;SDS011;18882;50.952;4.366;2022-10-15T15:19:53;2.80;;;0.80;;
32427;SDS011;18882;50.952;4.366;2022-10-15T15:22:30;1.23;;;0.40;;
32427;SDS011;18882;50.952;4.366;2022-10-15T15:24:59;3.17;;;0.75;;
32427;SDS011;18882;50.952;4.366;2022-10-15T15:27:28;7.20;;;0.65;;
32427;SDS011;18882;50.952;4.366;2022-10-15T15:29:55;2.38;;;0.35;;
32427;SDS011;18882;50.952;4.366;2022-10-15T15:32:22;2.08;;;0.55;;
32427;SDS011;18882;50.952;4.366;2022-10-15T15:34:49;1.13;;;0.63;;
32427;SDS011;18882;50.952;4.366;2022-10-15T15:37:17;1.58;;;0.75;;
32427;SDS011;18882;50.952;4.366;2022-10-15T15:39:45;1.83;;;0.40;;
32427;SDS011;18882;50.952;4.366;2022-10-15T15:42:12;0.35;;;0.30;;
32427;SDS011;18882;50.952;4.366;2022-10-15T15:44:39;4.57;;;0.63;;
32427;SDS011;18882;50.952;4.366;2022-10-15T15:47:05;2.25;;;0.45;;
32427;SDS011;18882;50.952;4.366;2022-10-15T15:49:32;2.63;;;0.57;;
32427;SDS011;18882;50.952;4.366;2022-10-15T15:51:57;1.00;;;0.40;;
32427;SDS011;18882;50.952;4.366;2022-10-15T15:54:23;2.35;;;0.45;;
32427;SDS011;18882;50.952;4.366;2022-10-15T15:56:49;2.55;;;0.80;;
32427;SDS011;18882;50.952;4.366;2022-10-15T15:59:14;5.47;;;0.30;;
32427;SDS011;18882;50.952;4.366;2022-10-15T16:01:43;1.95;;;0.50;;
32427;SDS011;18882;50.952;4.366;2022-10-15T16:04:09;3.85;;;0.52;;
32427;SDS011;18882;50.952;4.366;2022-10-15T16:06:36;0.52;;;0.22;;
32427;SDS011;18882;50.952;4.366;2022-10-15T16:09:03;2.13;;;0.60;;
32427;SDS011;18882;50.952;4.366;2022-10-15T16:11:30;4.95;;;0.40;;
32427;SDS011;18882;50.952;4.366;2022-10-15T16:13:56;6.28;;;0.55;;
32427;SDS011;18882;50.952;4.366;2022-10-15T16:16:23;2.67;;;0.65;;
32427;SDS011;18882;50.952;4.366;2022-10-15T16:18:49;3.78;;;0.70;;
32427;SDS011;18882;50.952;4.366;2022-10-15T16:21:24;0.63;;;0.25;;
32427;SDS011;18882;50.952;4.366;2022-10-15T16:23:50;1.10;;;0.63;;
32427;SDS011;18882;50.952;4.366;2022-10-15T16:26:16;3.53;;;0.32;;
32427;SDS011;18882;50.952;4.366;2022-10-15T16:28:42;3.65;;;0.63;;
32427;SDS011;18882;50.952;4.366;2022-10-15T16:31:15;2.63;;;0.43;;
32427;SDS011;18882;50.952;4.366;2022-10-15T16:33:48;1.48;;;0.38;;
32427;SDS011;18882;50.952;4.366;2022-10-15T16:36:14;0.45;;;0.40;;
32427;SDS011;18882;50.952;4.366;2022-10-15T16:38:41;1.30;;;0.40;;
32427;SDS011;18882;50.952;4.366;2022-10-15T16:41:08;6.90;;;0.77;;
32427;SDS011;18882;50.952;4.366;2022-10-15T16:43:35;4.43;;;0.80;;
32427;SDS011;18882;50.952;4.366;2022-10-15T16:46:01;7.07;;;0.77;;